createdAt,value
2019-02-26T00:00:49.692Z,3.60
2019-02-26T00:01:50.441Z,3.40
2019-02-26T00:02:50.635Z,4.30
2019-02-26T00:03:48.058Z,3.20
2019-02-26T00:04:49.125Z,3.70
2019-02-26T00:05:51.821Z,4.20
2019-02-26T00:06:49.239Z,3.40
2019-02-26T00:07:51.035Z,2.90
2019-02-26T00:08:51.267Z,3.80
2019-02-26T00:09:51.231Z,4.60
2019-02-26T00:10:50.032Z,3.30
2019-02-26T00:11:48.018Z,4.10
2019-02-26T00:12:48.096Z,3.30
2019-02-26T00:13:50.239Z,3.30
2019-02-26T00:14:50.089Z,3.90
2019-02-26T00:15:48.446Z,3.20
2019-02-26T00:16:49.388Z,3.80
2019-02-26T00:17:49.028Z,3.20
2019-02-26T00:18:47.922Z,2.90
2019-02-26T00:19:47.930Z,3.80
2019-02-26T00:20:47.928Z,3.10
2019-02-26T00:21:49.609Z,3.50
2019-02-26T00:22:47.862Z,3.20
2019-02-26T00:23:48.864Z,2.90
2019-02-26T00:24:47.841Z,3.00
2019-02-26T00:25:47.840Z,3.00
2019-02-26T00:26:47.850Z,3.10
2019-02-26T00:27:49.654Z,3.10
2019-02-26T00:28:47.800Z,3.00
2019-02-26T00:29:49.198Z,3.70
2019-02-26T00:30:47.780Z,3.00
2019-02-26T00:31:49.000Z,3.30
2019-02-26T00:32:47.790Z,3.20
2019-02-26T00:33:47.777Z,3.40
2019-02-26T00:34:47.800Z,2.90
2019-02-26T00:35:48.189Z,3.20
2019-02-26T00:36:47.719Z,3.30
2019-02-26T00:37:50.583Z,3.00
2019-02-26T00:38:47.704Z,3.00
2019-02-26T00:39:49.607Z,3.30
2019-02-26T00:40:47.718Z,3.30
2019-02-26T00:41:51.276Z,3.20
2019-02-26T00:42:50.180Z,5.10
2019-02-26T00:43:51.222Z,3.10
2019-02-26T00:44:51.362Z,3.00
2019-02-26T00:45:47.713Z,3.10
2019-02-26T00:46:47.747Z,5.00
2019-02-26T00:47:47.586Z,2.90
2019-02-26T00:48:47.594Z,3.00
2019-02-26T00:49:48.538Z,2.90
2019-02-26T00:50:47.678Z,3.40
2019-02-26T00:51:48.284Z,2.60
2019-02-26T00:52:47.566Z,3.00
2019-02-26T00:53:50.807Z,2.90
2019-02-26T00:54:48.626Z,2.80
2019-02-26T00:55:47.612Z,2.90
2019-02-26T00:56:47.601Z,2.80
2019-02-26T00:57:47.565Z,3.00
2019-02-26T00:58:48.292Z,2.80
2019-02-26T00:59:48.121Z,2.90
2019-02-26T01:00:47.536Z,3.80
2019-02-26T01:01:48.249Z,3.30
2019-02-26T01:02:47.525Z,3.20
2019-02-26T01:03:49.244Z,2.70
2019-02-26T01:04:48.637Z,3.20
2019-02-26T01:05:47.478Z,2.90
2019-02-26T01:06:47.471Z,3.20
2019-02-26T01:07:50.942Z,3.00
2019-02-26T01:08:47.443Z,3.20
2019-02-26T01:09:48.396Z,2.60
2019-02-26T01:10:47.493Z,3.10
2019-02-26T01:11:48.143Z,3.00
2019-02-26T01:12:47.461Z,2.70
2019-02-26T01:13:48.739Z,2.90
2019-02-26T01:14:48.186Z,2.90
2019-02-26T01:15:47.389Z,2.80
2019-02-26T01:16:48.298Z,3.60
2019-02-26T01:17:47.373Z,2.90
2019-02-26T01:18:49.389Z,3.00
2019-02-26T01:19:47.340Z,3.80
2019-02-26T01:20:50.344Z,2.90
2019-02-26T01:21:47.301Z,3.50
2019-02-26T01:22:47.333Z,2.60
2019-02-26T01:23:47.296Z,2.40
2019-02-26T01:24:49.392Z,3.10
2019-02-26T01:25:47.175Z,3.50
2019-02-26T01:26:47.164Z,2.80
2019-02-26T01:27:48.307Z,2.70
2019-02-26T01:28:48.998Z,2.60
2019-02-26T01:29:49.727Z,2.90
2019-02-26T01:30:51.257Z,2.80
2019-02-26T01:31:47.195Z,2.80
2019-02-26T01:32:47.184Z,3.10
2019-02-26T01:33:48.505Z,2.70
2019-02-26T01:34:47.821Z,2.60
2019-02-26T01:35:47.230Z,2.50
2019-02-26T01:36:49.378Z,2.80
2019-02-26T01:37:47.144Z,2.50
2019-02-26T01:38:49.149Z,2.40
2019-02-26T01:39:49.582Z,2.60
2019-02-26T01:40:50.725Z,2.50
2019-02-26T01:41:47.849Z,2.70
2019-02-26T01:42:51.959Z,2.40
2019-02-26T01:43:47.986Z,2.30
2019-02-26T01:44:47.070Z,2.60
2019-02-26T01:45:48.604Z,2.50
2019-02-26T01:46:47.047Z,2.80
2019-02-26T01:47:48.232Z,3.20
2019-02-26T01:48:47.036Z,2.40
2019-02-26T01:49:48.860Z,2.70
2019-02-26T01:50:47.005Z,2.70
2019-02-26T01:51:49.175Z,2.30
2019-02-26T01:52:46.983Z,2.30
2019-02-26T01:53:49.038Z,2.50
2019-02-26T01:54:46.966Z,2.50
2019-02-26T01:55:48.379Z,3.10
2019-02-26T01:56:46.935Z,2.50
2019-02-26T01:57:46.838Z,2.50
2019-02-26T01:58:56.169Z,2.90
2019-02-26T01:59:50.154Z,2.80
2019-02-26T02:00:46.893Z,2.40
2019-02-26T02:01:48.907Z,2.30
2019-02-26T02:02:46.900Z,2.50
2019-02-26T02:03:48.652Z,2.60
2019-02-26T02:04:46.900Z,2.60
2019-02-26T02:05:47.969Z,2.60
2019-02-26T02:06:46.832Z,2.40
2019-02-26T02:07:49.110Z,2.50
2019-02-26T02:08:48.267Z,2.30
2019-02-26T02:09:48.986Z,2.50
2019-02-26T02:10:51.400Z,2.50
2019-02-26T02:11:46.764Z,3.20
2019-02-26T02:12:46.753Z,2.20
2019-02-26T02:13:46.751Z,2.50
2019-02-26T02:14:46.725Z,2.40
2019-02-26T02:15:46.718Z,2.60
2019-02-26T02:16:46.747Z,3.10
2019-02-26T02:17:46.706Z,2.60
2019-02-26T02:18:48.862Z,2.40
2019-02-26T02:19:46.687Z,2.60
2019-02-26T02:20:46.678Z,2.60
2019-02-26T02:21:47.643Z,2.20
2019-02-26T02:22:46.690Z,2.50
2019-02-26T02:23:48.674Z,2.10
2019-02-26T02:24:48.399Z,2.30
2019-02-26T02:25:46.617Z,2.40
2019-02-26T02:26:48.244Z,2.30
2019-02-26T02:27:49.686Z,2.30
2019-02-26T02:28:47.642Z,2.20
2019-02-26T02:29:48.400Z,2.50
2019-02-26T02:30:46.579Z,2.70
2019-02-26T02:31:46.557Z,2.70
2019-02-26T02:32:50.475Z,2.20
2019-02-26T02:33:46.521Z,2.50
2019-02-26T02:34:46.540Z,2.30
2019-02-26T02:35:46.495Z,2.50
2019-02-26T02:36:46.480Z,2.20
2019-02-26T02:37:46.489Z,3.10
2019-02-26T02:38:46.471Z,2.00
2019-02-26T02:39:46.464Z,3.10
2019-02-26T02:40:48.914Z,2.20
2019-02-26T02:41:50.836Z,2.60
2019-02-26T02:42:49.116Z,2.60
2019-02-26T02:43:46.319Z,2.10
2019-02-26T02:44:46.883Z,3.00
2019-02-26T02:45:47.559Z,2.00
2019-02-26T02:46:46.688Z,2.30
2019-02-26T02:47:46.388Z,2.20
2019-02-26T02:48:46.359Z,2.40
2019-02-26T02:49:46.341Z,3.40
2019-02-26T02:50:46.369Z,2.20
2019-02-26T02:51:46.368Z,2.30
2019-02-26T02:52:46.315Z,2.60
2019-02-26T02:53:47.813Z,2.20
2019-02-26T02:54:47.552Z,2.30
2019-02-26T02:55:47.067Z,2.10
2019-02-26T02:56:46.207Z,2.10
2019-02-26T02:57:49.143Z,2.50
2019-02-26T02:58:48.767Z,2.30
2019-02-26T02:59:46.268Z,2.10
2019-02-26T03:00:48.487Z,2.10
2019-02-26T03:01:49.587Z,2.50
2019-02-26T03:02:49.366Z,2.50
2019-02-26T03:03:47.726Z,2.20
2019-02-26T03:04:46.099Z,2.10
2019-02-26T03:05:46.180Z,2.10
2019-02-26T03:06:46.171Z,2.20
2019-02-26T03:07:50.439Z,2.20
2019-02-26T03:08:48.155Z,2.30
2019-02-26T03:09:46.175Z,1.90
2019-02-26T03:10:46.111Z,1.80
2019-02-26T03:11:47.139Z,2.10
2019-02-26T03:12:48.722Z,2.70
2019-02-26T03:13:48.621Z,2.10
2019-02-26T03:14:46.104Z,1.90
2019-02-26T03:15:47.510Z,1.90
2019-02-26T03:16:47.954Z,2.40
2019-02-26T03:17:45.970Z,2.20
2019-02-26T03:18:46.042Z,2.00
2019-02-26T03:19:46.058Z,2.20
2019-02-26T03:20:46.047Z,2.30
2019-02-26T03:21:47.202Z,2.20
2019-02-26T03:22:49.099Z,2.20
2019-02-26T03:23:45.979Z,2.30
2019-02-26T03:24:48.241Z,2.10
2019-02-26T03:25:47.444Z,2.00
2019-02-26T03:26:45.986Z,2.30
2019-02-26T03:27:45.934Z,2.10
2019-02-26T03:28:48.160Z,2.50
2019-02-26T03:29:47.336Z,2.10
2019-02-26T03:30:45.883Z,2.20
2019-02-26T03:31:48.015Z,2.20
2019-02-26T03:32:50.470Z,2.10
2019-02-26T03:33:46.871Z,1.90
2019-02-26T03:34:45.866Z,2.10
2019-02-26T03:35:45.841Z,2.30
2019-02-26T03:36:45.874Z,2.00
2019-02-26T03:37:45.830Z,2.20
2019-02-26T03:38:48.354Z,2.20
2019-02-26T03:39:45.803Z,2.30
2019-02-26T03:40:45.833Z,2.70
2019-02-26T03:41:46.588Z,2.10
2019-02-26T03:42:46.270Z,2.80
2019-02-26T03:43:45.678Z,1.90
2019-02-26T03:44:46.953Z,2.20
2019-02-26T03:45:48.009Z,2.00
2019-02-26T03:46:45.762Z,2.00
2019-02-26T03:47:45.700Z,1.90
2019-02-26T03:48:45.702Z,2.10
2019-02-26T03:49:45.699Z,1.70
2019-02-26T03:50:45.668Z,1.90
2019-02-26T03:51:45.678Z,2.20
2019-02-26T03:52:45.693Z,2.30
2019-02-26T03:53:45.639Z,2.00
2019-02-26T03:54:47.932Z,2.10
2019-02-26T03:55:45.661Z,1.70
2019-02-26T03:56:45.608Z,2.40
2019-02-26T03:57:47.303Z,2.10
2019-02-26T03:58:45.595Z,2.00
2019-02-26T03:59:45.586Z,2.20
2019-02-26T04:00:46.914Z,1.90
2019-02-26T04:01:45.586Z,1.90
2019-02-26T04:02:48.206Z,2.10
2019-02-26T04:03:46.617Z,2.70
2019-02-26T04:04:45.927Z,1.70
2019-02-26T04:05:45.545Z,2.10
2019-02-26T04:06:47.146Z,2.20
2019-02-26T04:07:45.497Z,2.10
2019-02-26T04:08:48.111Z,1.90
2019-02-26T04:09:46.822Z,2.00
2019-02-26T04:10:47.575Z,2.30
2019-02-26T04:11:48.146Z,1.90
2019-02-26T04:12:48.602Z,2.00
2019-02-26T04:13:48.672Z,2.20
2019-02-26T04:14:45.424Z,1.90
2019-02-26T04:15:45.400Z,1.80
2019-02-26T04:16:45.404Z,2.00
2019-02-26T04:17:45.383Z,2.30
2019-02-26T04:18:45.385Z,1.90
2019-02-26T04:19:45.395Z,1.80
2019-02-26T04:20:45.375Z,2.00
2019-02-26T04:21:45.342Z,2.10
2019-02-26T04:22:47.074Z,1.90
2019-02-26T04:23:46.656Z,2.60
2019-02-26T04:24:45.301Z,1.90
2019-02-26T04:25:45.344Z,1.80
2019-02-26T04:26:45.280Z,1.90
2019-02-26T04:27:45.292Z,1.90
2019-02-26T04:28:47.444Z,1.80
2019-02-26T04:29:46.740Z,1.90
2019-02-26T04:30:47.769Z,1.90
2019-02-26T04:31:47.085Z,2.00
2019-02-26T04:32:46.218Z,1.70
2019-02-26T04:33:45.218Z,1.60
2019-02-26T04:34:45.187Z,1.90
2019-02-26T04:35:47.683Z,2.20
2019-02-26T04:36:47.109Z,2.20
2019-02-26T04:37:45.192Z,2.20
2019-02-26T04:38:45.594Z,2.20
2019-02-26T04:39:47.670Z,1.80
2019-02-26T04:40:45.145Z,2.00
2019-02-26T04:41:45.146Z,2.40
2019-02-26T04:42:46.077Z,1.70
2019-02-26T04:43:45.131Z,2.00
2019-02-26T04:44:47.657Z,1.80
2019-02-26T04:45:46.087Z,2.10
2019-02-26T04:46:45.077Z,2.00
2019-02-26T04:47:46.666Z,1.70
2019-02-26T04:48:45.066Z,1.90
2019-02-26T04:49:45.073Z,1.60
2019-02-26T04:50:45.037Z,1.90
2019-02-26T04:51:47.748Z,1.80
2019-02-26T04:52:44.997Z,2.30
2019-02-26T04:53:44.997Z,2.00
2019-02-26T04:54:45.019Z,1.50
2019-02-26T04:55:45.007Z,1.80
2019-02-26T04:56:45.667Z,1.80
2019-02-26T04:57:46.485Z,1.80
2019-02-26T04:58:45.917Z,2.00
2019-02-26T04:59:44.829Z,1.70
2019-02-26T05:00:44.944Z,1.90
2019-02-26T05:01:47.220Z,1.70
2019-02-26T05:02:44.906Z,1.70
2019-02-26T05:03:44.895Z,1.80
2019-02-26T05:04:44.869Z,2.20
2019-02-26T05:05:44.849Z,2.10
2019-02-26T05:06:44.911Z,1.70
2019-02-26T05:07:47.226Z,2.20
2019-02-26T05:08:44.843Z,1.90
2019-02-26T05:09:44.833Z,1.50
2019-02-26T05:10:46.396Z,1.50
2019-02-26T05:11:44.810Z,1.80
2019-02-26T05:12:44.836Z,1.80
2019-02-26T05:13:44.792Z,1.90
2019-02-26T05:14:44.750Z,1.60
2019-02-26T05:15:44.770Z,1.90
2019-02-26T05:16:44.730Z,1.90
2019-02-26T05:17:44.719Z,1.70
2019-02-26T05:18:47.035Z,1.60
2019-02-26T05:19:48.223Z,1.70
2019-02-26T05:20:48.440Z,2.30
2019-02-26T05:21:44.692Z,1.80
2019-02-26T05:22:44.677Z,2.00
2019-02-26T05:23:46.490Z,2.30
2019-02-26T05:24:47.289Z,2.00
2019-02-26T05:25:45.661Z,2.50
2019-02-26T05:26:44.669Z,2.00
2019-02-26T05:27:47.493Z,2.00
2019-02-26T05:28:46.931Z,1.80
2019-02-26T05:29:46.605Z,1.70
2019-02-26T05:30:46.427Z,2.00
2019-02-26T05:31:44.491Z,2.00
2019-02-26T05:32:44.561Z,1.90
2019-02-26T05:33:46.741Z,2.10
2019-02-26T05:34:45.951Z,1.80
2019-02-26T05:35:46.181Z,2.20
2019-02-26T05:36:46.097Z,2.10
2019-02-26T05:37:44.424Z,2.60
2019-02-26T05:38:44.520Z,1.80
2019-02-26T05:39:46.831Z,2.30
2019-02-26T05:40:45.282Z,1.80
2019-02-26T05:41:44.426Z,1.80
2019-02-26T05:42:44.367Z,2.00
2019-02-26T05:43:49.423Z,1.70
2019-02-26T05:44:45.447Z,2.40
2019-02-26T05:45:44.441Z,1.80
2019-02-26T05:46:44.457Z,2.00
2019-02-26T05:47:46.067Z,2.00
2019-02-26T05:48:45.830Z,2.20
2019-02-26T05:49:45.834Z,1.70
2019-02-26T05:50:44.766Z,2.00
2019-02-26T05:51:44.382Z,1.80
2019-02-26T05:52:44.352Z,2.90
2019-02-26T05:53:44.366Z,2.10
2019-02-26T05:54:44.336Z,2.10
2019-02-26T05:55:47.785Z,1.70
2019-02-26T05:56:46.873Z,1.80
2019-02-26T05:57:44.301Z,2.00
2019-02-26T05:58:47.048Z,1.80
2019-02-26T05:59:44.313Z,2.00
2019-02-26T06:00:44.257Z,1.90
2019-02-26T06:01:46.512Z,1.90
2019-02-26T06:02:47.265Z,1.80
2019-02-26T06:03:46.175Z,2.30
2019-02-26T06:04:46.578Z,1.90
2019-02-26T06:05:46.513Z,2.00
2019-02-26T06:06:44.204Z,1.80
2019-02-26T06:07:44.170Z,2.00
2019-02-26T06:08:44.224Z,1.80
2019-02-26T06:09:45.337Z,1.60
2019-02-26T06:10:44.140Z,2.30
2019-02-26T06:11:47.873Z,2.20
2019-02-26T06:12:46.676Z,1.90
2019-02-26T06:13:44.034Z,1.90
2019-02-26T06:14:44.015Z,1.80
2019-02-26T06:15:44.004Z,2.20
2019-02-26T06:16:46.198Z,1.90
2019-02-26T06:17:45.755Z,1.70
2019-02-26T06:18:46.534Z,1.90
2019-02-26T06:19:44.917Z,2.20
2019-02-26T06:20:43.950Z,1.90
2019-02-26T06:21:44.821Z,2.10
2019-02-26T06:22:44.081Z,1.80
2019-02-26T06:23:43.955Z,2.80
2019-02-26T06:24:43.985Z,1.80
2019-02-26T06:25:43.890Z,2.30
2019-02-26T06:26:45.512Z,1.70
2019-02-26T06:27:43.893Z,2.20
2019-02-26T06:28:46.188Z,2.10
2019-02-26T06:29:43.871Z,2.00
2019-02-26T06:30:43.841Z,1.80
2019-02-26T06:31:45.096Z,1.80
2019-02-26T06:32:44.708Z,2.60
2019-02-26T06:33:47.182Z,2.10
2019-02-26T06:34:43.849Z,2.20
2019-02-26T06:35:43.811Z,2.00
2019-02-26T06:36:44.224Z,1.90
2019-02-26T06:37:43.847Z,2.30
2019-02-26T06:38:43.873Z,1.70
2019-02-26T06:39:43.834Z,2.00
2019-02-26T06:40:47.086Z,2.00
2019-02-26T06:41:46.760Z,2.40
2019-02-26T06:42:43.707Z,1.70
2019-02-26T06:43:47.566Z,1.80
2019-02-26T06:44:47.153Z,1.90
2019-02-26T06:45:45.977Z,2.10
2019-02-26T06:46:43.710Z,1.90
2019-02-26T06:47:45.789Z,2.00
2019-02-26T06:48:43.753Z,1.90
2019-02-26T06:49:45.625Z,1.90
2019-02-26T06:50:43.635Z,2.00
2019-02-26T06:51:45.159Z,2.00
2019-02-26T06:52:46.873Z,2.00
2019-02-26T06:53:47.365Z,1.90
2019-02-26T06:54:47.737Z,1.80
2019-02-26T06:55:43.552Z,1.80
2019-02-26T06:56:45.717Z,1.90
2019-02-26T06:57:46.349Z,1.80
2019-02-26T06:58:45.043Z,2.80
2019-02-26T06:59:43.545Z,1.80
2019-02-26T07:00:44.181Z,3.00
2019-02-26T07:01:43.521Z,2.30
2019-02-26T07:02:46.162Z,1.90
2019-02-26T07:03:43.585Z,2.00
2019-02-26T07:04:43.606Z,1.90
2019-02-26T07:05:46.484Z,2.60
2019-02-26T07:06:43.591Z,1.70
2019-02-26T07:07:43.445Z,1.80
2019-02-26T07:08:44.582Z,1.80
2019-02-26T07:09:43.974Z,2.10
2019-02-26T07:10:43.520Z,1.70
2019-02-26T07:11:43.526Z,2.60
2019-02-26T07:12:45.271Z,1.70
2019-02-26T07:13:44.765Z,2.30
2019-02-26T07:14:43.459Z,1.90
2019-02-26T07:15:45.442Z,2.80
2019-02-26T07:16:43.442Z,2.10
2019-02-26T07:17:45.930Z,1.70
2019-02-26T07:18:43.457Z,2.30
2019-02-26T07:19:43.416Z,1.70
2019-02-26T07:20:46.816Z,1.80
2019-02-26T07:21:45.480Z,1.80
2019-02-26T07:22:43.942Z,2.10
2019-02-26T07:23:43.363Z,1.70
2019-02-26T07:24:44.581Z,1.70
2019-02-26T07:25:44.063Z,1.60
2019-02-26T07:26:45.495Z,3.10
2019-02-26T07:27:43.339Z,1.60
2019-02-26T07:28:44.095Z,1.80
2019-02-26T07:29:45.609Z,2.00
2019-02-26T07:30:44.653Z,2.30
2019-02-26T07:31:43.281Z,3.10
2019-02-26T07:32:45.655Z,3.40
2019-02-26T07:33:43.291Z,2.10
2019-02-26T07:34:45.257Z,2.20
2019-02-26T07:35:43.291Z,1.70
2019-02-26T07:36:45.230Z,2.00
2019-02-26T07:37:43.225Z,1.60
2019-02-26T07:38:46.052Z,2.00
2019-02-26T07:39:44.331Z,2.40
2019-02-26T07:40:43.184Z,1.60
2019-02-26T07:41:44.605Z,1.70
2019-02-26T07:42:44.735Z,1.60
2019-02-26T07:43:46.352Z,1.70
2019-02-26T07:44:43.155Z,2.20
2019-02-26T07:45:43.128Z,1.90
2019-02-26T07:46:44.833Z,2.00
2019-02-26T07:47:45.091Z,2.80
2019-02-26T07:48:43.167Z,2.00
2019-02-26T07:49:43.079Z,1.90
2019-02-26T07:50:45.731Z,1.90
2019-02-26T07:51:43.138Z,2.00
2019-02-26T07:52:43.031Z,2.00
2019-02-26T07:53:47.978Z,2.20
2019-02-26T07:54:44.701Z,2.30
2019-02-26T07:55:43.012Z,2.20
2019-02-26T07:56:43.002Z,1.50
2019-02-26T07:57:45.311Z,1.80
2019-02-26T07:58:43.148Z,2.00
2019-02-26T07:59:44.955Z,1.90
2019-02-26T08:00:47.143Z,2.90
2019-02-26T08:01:45.301Z,2.50
2019-02-26T08:02:42.848Z,2.00
2019-02-26T08:03:44.047Z,2.30
2019-02-26T08:04:43.910Z,1.70
2019-02-26T08:05:42.790Z,2.40
2019-02-26T08:06:42.819Z,2.00
2019-02-26T08:07:44.414Z,1.80
2019-02-26T08:08:44.902Z,2.20
2019-02-26T08:09:42.834Z,1.70
2019-02-26T08:10:44.696Z,1.60
2019-02-26T08:11:45.322Z,2.20
2019-02-26T08:12:42.882Z,2.80
2019-02-26T08:13:42.815Z,2.40
2019-02-26T08:14:45.085Z,4.00
2019-02-26T08:15:42.713Z,2.40
2019-02-26T08:16:42.769Z,4.50
2019-02-26T08:17:45.650Z,2.70
2019-02-26T08:18:43.827Z,5.30
2019-02-26T08:19:46.364Z,5.20
2019-02-26T08:20:42.754Z,3.90
2019-02-26T08:21:42.611Z,4.60
2019-02-26T08:22:42.632Z,3.60
2019-02-26T08:23:43.701Z,4.00
2019-02-26T08:24:42.643Z,3.90
2019-02-26T08:25:42.588Z,3.70
2019-02-26T08:26:43.370Z,5.80
2019-02-26T08:27:42.572Z,3.20
2019-02-26T08:28:44.071Z,5.30
2019-02-26T08:29:42.598Z,4.60
2019-02-26T08:30:44.692Z,7.80
2019-02-26T08:31:44.696Z,2.40
2019-02-26T08:32:42.517Z,5.70
2019-02-26T08:33:42.505Z,4.90
2019-02-26T08:34:42.483Z,2.80
2019-02-26T08:35:42.472Z,3.50
2019-02-26T08:36:46.205Z,4.70
2019-02-26T08:37:42.484Z,5.00
2019-02-26T08:38:42.442Z,2.60
2019-02-26T08:39:42.483Z,4.20
2019-02-26T08:40:42.448Z,3.90
2019-02-26T08:41:42.402Z,2.90
2019-02-26T08:42:42.435Z,4.30
2019-02-26T08:43:46.363Z,3.40
2019-02-26T08:44:46.259Z,3.40
2019-02-26T08:45:42.446Z,2.60
2019-02-26T08:46:44.349Z,3.80
2019-02-26T08:47:42.347Z,3.20
2019-02-26T08:48:45.523Z,2.50
2019-02-26T08:49:43.524Z,2.00
2019-02-26T08:50:44.054Z,4.30
2019-02-26T08:51:42.327Z,3.40
2019-02-26T08:52:44.251Z,4.00
2019-02-26T08:53:44.349Z,4.90
2019-02-26T08:54:42.317Z,4.30
2019-02-26T08:55:42.287Z,6.40
2019-02-26T08:56:42.277Z,3.00
2019-02-26T08:57:42.243Z,6.00
2019-02-26T08:58:42.980Z,3.30
2019-02-26T08:59:44.660Z,3.60
2019-02-26T09:00:42.227Z,3.60
2019-02-26T09:01:42.214Z,4.50
2019-02-26T09:02:43.733Z,7.10
2019-02-26T09:03:42.162Z,4.60
2019-02-26T09:04:42.591Z,4.20
2019-02-26T09:05:42.162Z,5.50
2019-02-26T09:06:42.152Z,6.30
2019-02-26T09:07:43.312Z,5.10
2019-02-26T09:08:43.101Z,4.70
2019-02-26T09:09:42.103Z,3.90
2019-02-26T09:10:43.723Z,5.10
2019-02-26T09:11:42.092Z,4.40
2019-02-26T09:12:44.138Z,4.50
2019-02-26T09:13:43.839Z,3.50
2019-02-26T09:14:42.824Z,3.70
2019-02-26T09:15:43.192Z,4.60
2019-02-26T09:16:42.033Z,3.40
2019-02-26T09:17:42.199Z,4.60
2019-02-26T09:18:42.001Z,5.30
2019-02-26T09:19:42.002Z,3.30
2019-02-26T09:20:42.040Z,3.10
2019-02-26T09:21:44.615Z,2.90
2019-02-26T09:22:45.649Z,6.10
2019-02-26T09:23:42.942Z,4.50
2019-02-26T09:24:41.946Z,2.80
2019-02-26T09:25:41.922Z,2.80
2019-02-26T09:26:41.965Z,4.80
2019-02-26T09:27:42.934Z,3.50
2019-02-26T09:28:41.910Z,3.40
2019-02-26T09:29:47.375Z,5.20
2019-02-26T09:30:42.899Z,3.80
2019-02-26T09:31:41.862Z,3.70
2019-02-26T09:32:44.597Z,3.70
2019-02-26T09:33:43.600Z,3.90
2019-02-26T09:34:41.826Z,3.00
2019-02-26T09:35:41.871Z,4.50
2019-02-26T09:36:41.802Z,3.20
2019-02-26T09:37:42.820Z,4.80
2019-02-26T09:38:43.865Z,2.80
2019-02-26T09:39:41.790Z,3.10
2019-02-26T09:40:41.789Z,3.30
2019-02-26T09:41:43.363Z,2.60
2019-02-26T09:42:41.756Z,5.20
2019-02-26T09:43:43.288Z,3.50
2019-02-26T09:44:41.727Z,4.10
2019-02-26T09:45:43.455Z,3.90
2019-02-26T09:46:43.841Z,2.40
2019-02-26T09:47:41.728Z,3.40
2019-02-26T09:48:44.743Z,3.20
2019-02-26T09:49:41.663Z,2.50
2019-02-26T09:50:43.776Z,4.00
2019-02-26T09:51:41.642Z,3.00
2019-02-26T09:52:41.703Z,3.10
2019-02-26T09:53:41.657Z,2.40
2019-02-26T09:54:42.936Z,2.70
2019-02-26T09:55:41.607Z,4.90
2019-02-26T09:56:41.582Z,2.70
2019-02-26T09:57:41.586Z,4.80
2019-02-26T09:58:43.989Z,4.40
2019-02-26T09:59:41.562Z,2.60
2019-02-26T10:00:43.136Z,3.70
2019-02-26T10:01:42.823Z,3.40
2019-02-26T10:02:42.503Z,3.90
2019-02-26T10:03:41.590Z,3.10
2019-02-26T10:04:42.497Z,2.80
2019-02-26T10:05:41.482Z,4.10
2019-02-26T10:06:42.574Z,3.40
2019-02-26T10:07:41.465Z,4.10
2019-02-26T10:08:41.464Z,4.60
2019-02-26T10:09:45.915Z,3.50
2019-02-26T10:10:42.442Z,2.30
2019-02-26T10:11:42.453Z,2.80
2019-02-26T10:12:41.448Z,3.00
2019-02-26T10:13:42.027Z,3.70
2019-02-26T10:14:41.393Z,2.90
2019-02-26T10:15:42.801Z,2.50
2019-02-26T10:16:41.362Z,2.60
2019-02-26T10:17:42.824Z,4.70
2019-02-26T10:18:41.376Z,2.10
2019-02-26T10:19:43.010Z,2.30
2019-02-26T10:20:43.347Z,2.20
2019-02-26T10:21:43.126Z,3.70
2019-02-26T10:22:41.305Z,1.60
2019-02-26T10:23:41.280Z,6.80
2019-02-26T10:24:41.285Z,1.70
2019-02-26T10:25:41.308Z,2.70
2019-02-26T10:26:43.240Z,2.40
2019-02-26T10:27:43.221Z,3.40
2019-02-26T10:28:42.762Z,4.80
2019-02-26T10:29:42.961Z,2.00
2019-02-26T10:30:41.819Z,2.90
2019-02-26T10:31:41.307Z,3.30
2019-02-26T10:32:41.204Z,2.20
2019-02-26T10:33:43.973Z,3.50
2019-02-26T10:34:41.162Z,2.00
2019-02-26T10:35:44.353Z,2.00
2019-02-26T10:36:44.143Z,2.80
2019-02-26T10:37:43.611Z,2.20
2019-02-26T10:38:41.122Z,2.60
2019-02-26T10:39:42.206Z,2.60
2019-02-26T10:40:53.207Z,2.10
2019-02-26T10:41:44.103Z,3.40
2019-02-26T10:42:41.082Z,2.10
2019-02-26T10:43:41.580Z,3.30
2019-02-26T10:44:42.706Z,2.70
2019-02-26T10:45:42.428Z,2.60
2019-02-26T10:46:42.567Z,2.70
2019-02-26T10:47:41.052Z,2.10
2019-02-26T10:48:43.133Z,3.10
2019-02-26T10:49:41.008Z,1.70
2019-02-26T10:50:43.078Z,2.60
2019-02-26T10:51:42.642Z,2.50
2019-02-26T10:52:40.982Z,3.90
2019-02-26T10:53:40.966Z,2.10
2019-02-26T10:54:43.506Z,2.40
2019-02-26T10:55:42.319Z,2.60
2019-02-26T10:56:42.555Z,3.80
2019-02-26T10:57:40.932Z,3.50
2019-02-26T10:58:40.891Z,3.00
2019-02-26T10:59:44.062Z,2.00
2019-02-26T11:00:40.965Z,2.50
2019-02-26T11:01:40.885Z,4.00
2019-02-26T11:02:43.142Z,2.30
2019-02-26T11:03:43.767Z,3.40
2019-02-26T11:04:41.837Z,20.70
2019-02-26T11:05:42.657Z,13.30
2019-02-26T11:06:43.749Z,15.90
2019-02-26T11:07:40.823Z,6.30
2019-02-26T11:08:40.810Z,7.00
2019-02-26T11:09:40.786Z,5.60
2019-02-26T11:10:43.992Z,5.10
2019-02-26T11:11:42.316Z,5.60
2019-02-26T11:12:40.763Z,3.90
2019-02-26T11:13:43.493Z,3.50
2019-02-26T11:14:41.880Z,3.40
2019-02-26T11:15:40.725Z,2.80
2019-02-26T11:16:40.724Z,2.80
2019-02-26T11:17:42.516Z,4.10
2019-02-26T11:18:42.740Z,3.20
2019-02-26T11:19:41.831Z,3.00
2019-02-26T11:20:40.700Z,5.10
2019-02-26T11:21:40.673Z,4.90
2019-02-26T11:22:42.339Z,4.30
2019-02-26T11:23:41.542Z,4.20
2019-02-26T11:24:40.650Z,4.30
2019-02-26T11:25:40.672Z,3.60
2019-02-26T11:26:41.368Z,2.40
2019-02-26T11:27:41.799Z,3.90
2019-02-26T11:28:42.896Z,3.20
2019-02-26T11:29:40.805Z,4.00
2019-02-26T11:30:40.588Z,5.10
2019-02-26T11:31:41.870Z,3.80
2019-02-26T11:32:42.259Z,3.20
2019-02-26T11:33:40.575Z,5.80
2019-02-26T11:34:40.552Z,3.90
2019-02-26T11:35:42.139Z,5.50
2019-02-26T11:36:40.996Z,5.50
2019-02-26T11:37:42.319Z,5.80
2019-02-26T11:38:42.148Z,4.70
2019-02-26T11:39:40.513Z,5.90
2019-02-26T11:40:40.463Z,3.90
2019-02-26T11:41:40.467Z,3.70
2019-02-26T11:42:42.214Z,2.80
2019-02-26T11:43:40.442Z,3.50
2019-02-26T11:44:40.426Z,2.60
2019-02-26T11:45:41.982Z,2.90
2019-02-26T11:46:40.409Z,3.50
2019-02-26T11:47:41.317Z,4.10
2019-02-26T11:48:40.385Z,3.10
2019-02-26T11:49:41.865Z,1.90
2019-02-26T11:50:44.221Z,2.60
2019-02-26T11:51:42.415Z,4.90
2019-02-26T11:52:40.354Z,3.20
2019-02-26T11:53:40.322Z,2.50
2019-02-26T11:54:42.170Z,3.00
2019-02-26T11:55:40.305Z,3.20
2019-02-26T11:56:42.608Z,4.00
2019-02-26T11:57:42.356Z,5.90
2019-02-26T11:58:40.283Z,2.60
2019-02-26T11:59:42.716Z,6.40
2019-02-26T12:00:42.789Z,3.80
2019-02-26T12:01:42.056Z,3.30
2019-02-26T12:02:41.631Z,3.40
2019-02-26T12:03:41.622Z,6.00
2019-02-26T12:04:40.222Z,2.60
2019-02-26T12:05:41.750Z,2.40
2019-02-26T12:06:40.182Z,2.10
2019-02-26T12:07:40.209Z,11.40
2019-02-26T12:08:42.477Z,39.30
2019-02-26T12:09:40.806Z,41.60
2019-02-26T12:10:40.593Z,30.90
2019-02-26T12:11:40.125Z,22.40
2019-02-26T12:12:40.122Z,10.80
2019-02-26T12:13:42.847Z,11.00
2019-02-26T12:14:43.101Z,8.40
2019-02-26T12:15:42.717Z,7.70
2019-02-26T12:16:40.086Z,6.00
2019-02-26T12:17:40.098Z,5.20
2019-02-26T12:18:41.640Z,4.90
2019-02-26T12:19:40.062Z,3.70
2019-02-26T12:20:42.671Z,3.90
2019-02-26T12:21:40.097Z,3.00
2019-02-26T12:22:41.198Z,4.30
2019-02-26T12:23:42.159Z,4.70
2019-02-26T12:24:40.002Z,4.30
2019-02-26T12:25:39.987Z,2.90
2019-02-26T12:26:42.212Z,4.00
2019-02-26T12:27:41.330Z,3.40
2019-02-26T12:28:40.395Z,2.40
2019-02-26T12:29:42.268Z,3.60
2019-02-26T12:30:43.311Z,4.00
2019-02-26T12:31:39.912Z,4.20
2019-02-26T12:32:41.692Z,3.50
2019-02-26T12:33:39.942Z,3.10
2019-02-26T12:34:41.217Z,4.10
2019-02-26T12:35:40.651Z,3.30
2019-02-26T12:36:39.892Z,5.30
2019-02-26T12:37:39.868Z,4.70
2019-02-26T12:38:39.842Z,4.20
2019-02-26T12:39:39.853Z,3.60
2019-02-26T12:40:42.548Z,6.00
2019-02-26T12:41:42.474Z,6.60
2019-02-26T12:42:40.803Z,4.20
2019-02-26T12:43:43.098Z,4.20
2019-02-26T12:44:44.749Z,5.40
2019-02-26T12:45:40.834Z,2.70
2019-02-26T12:46:39.771Z,4.40
2019-02-26T12:47:40.598Z,4.20
2019-02-26T12:48:41.834Z,5.00
2019-02-26T12:49:42.230Z,2.80
2019-02-26T12:50:40.796Z,3.70
2019-02-26T12:51:39.721Z,2.20
2019-02-26T12:52:42.112Z,2.90
2019-02-26T12:53:40.590Z,3.00
2019-02-26T12:54:42.639Z,3.00
2019-02-26T12:55:42.339Z,3.30
2019-02-26T12:56:39.658Z,4.60
2019-02-26T12:57:39.745Z,7.90
2019-02-26T12:58:41.106Z,5.80
2019-02-26T12:59:39.667Z,5.10
2019-02-26T13:00:41.978Z,7.70
2019-02-26T13:01:42.521Z,3.40
2019-02-26T13:02:40.572Z,5.70
2019-02-26T13:03:42.542Z,5.30
2019-02-26T13:04:40.989Z,3.60
2019-02-26T13:05:42.194Z,4.60
2019-02-26T13:06:42.127Z,3.40
2019-02-26T13:07:39.569Z,4.90
2019-02-26T13:08:40.391Z,3.00
2019-02-26T13:09:47.020Z,4.20
2019-02-26T13:10:42.286Z,3.60
2019-02-26T13:12:00.139Z,3.90
2019-02-26T13:12:40.527Z,3.80
2019-02-26T13:13:39.478Z,2.80
2019-02-26T13:14:39.464Z,3.80
2019-02-26T13:15:39.469Z,6.10
2019-02-26T13:16:39.440Z,2.90
2019-02-26T13:17:39.526Z,2.90
2019-02-26T13:18:39.583Z,4.20